sensor_id;sensor_type;location;lat;lon;timestamp;temperature;humidity
18105;DHT22;9179;50.968;3.134;2023-12-04T00:00:46;4.70;99.90
18105;DHT22;9179;50.968;3.134;2023-12-04T00:03:13;4.70;99.90
18105;DHT22;9179;50.968;3.134;2023-12-04T00:05:43;4.70;99.90
18105;DHT22;9179;50.968;3.134;2023-12-04T00:08:10;4.70;99.90
18105;DHT22;9179;50.968;3.134;2023-12-04T00:10:37;4.70;99.90
18105;DHT22;9179;50.968;3.134;2023-12-04T00:13:04;4.70;99.90
18105;DHT22;9179;50.968;3.134;2023-12-04T00:15:31;4.60;99.90
18105;DHT22;9179;50.968;3.134;2023-12-04T00:17:58;4.60;99.90
18105;DHT22;9179;50.968;3.134;2023-12-04T00:20:25;4.60;99.90
18105;DHT22;9179;50.968;3.134;2023-12-04T00:22:53;4.60;99.90
18105;DHT22;9179;50.968;3.134;2023-12-04T00:25:21;4.60;99.90
18105;DHT22;9179;50.968;3.134;2023-12-04T00:27:48;4.60;99.90
18105;DHT22;9179;50.968;3.134;2023-12-04T00:30:15;4.70;99.90
18105;DHT22;9179;50.968;3.134;2023-12-04T00:32:42;4.70;99.90
18105;DHT22;9179;50.968;3.134;2023-12-04T00:35:09;4.60;99.90
18105;DHT22;9179;50.968;3.134;2023-12-04T00:37:36;4.60;99.90
18105;DHT22;9179;50.968;3.134;2023-12-04T00:40:06;4.60;99.90
18105;DHT22;9179;50.968;3.134;2023-12-04T00:42:33;4.60;99.90
18105;DHT22;9179;50.968;3.134;2023-12-04T00:45:02;4.60;99.90
18105;DHT22;9179;50.968;3.134;2023-12-04T00:47:29;4.60;99.90
18105;DHT22;9179;50.968;3.134;2023-12-04T00:49:56;4.60;99.90
18105;DHT22;9179;50.968;3.134;2023-12-04T00:52:23;4.60;99.90
18105;DHT22;9179;50.968;3.134;2023-12-04T00:54:50;4.60;99.90
18105;DHT22;9179;50.968;3.134;2023-12-04T00:57:18;4.60;99.90
18105;DHT22;9179;50.968;3.134;2023-12-04T00:59:45;4.60;99.90
18105;DHT22;9179;50.968;3.134;2023-12-04T01:02:12;4.60;99.90
18105;DHT22;9179;50.968;3.134;2023-12-04T01:04:40;4.60;99.90
18105;DHT22;9179;50.968;3.134;2023-12-04T01:07:07;4.60;99.90
18105;DHT22;9179;50.968;3.134;2023-12-04T01:09:34;4.60;99.90
18105;DHT22;9179;50.968;3.134;2023-12-04T01:12:02;4.60;99.90
18105;DHT22;9179;50.968;3.134;2023-12-04T01:14:30;4.60;99.90
18105;DHT22;9179;50.968;3.134;2023-12-04T01:16:58;4.60;99.90
18105;DHT22;9179;50.968;3.134;2023-12-04T01:19:25;4.60;99.90
18105;DHT22;9179;50.968;3.134;2023-12-04T01:21:52;4.60;99.90
18105;DHT22;9179;50.968;3.134;2023-12-04T01:24:19;4.60;99.90
18105;DHT22;9179;50.968;3.134;2023-12-04T01:26:47;4.60;99.90
18105;DHT22;9179;50.968;3.134;2023-12-04T01:29:13;4.70;99.90
18105;DHT22;9179;50.968;3.134;2023-12-04T01:31:42;4.70;99.90
18105;DHT22;9179;50.968;3.134;2023-12-04T01:34:09;4.70;99.90
18105;DHT22;9179;50.968;3.134;2023-12-04T01:36:39;4.70;99.90
18105;DHT22;9179;50.968;3.134;2023-12-04T01:39:06;4.70;99.90
18105;DHT22;9179;50.968;3.134;2023-12-04T01:41:33;4.70;99.90
18105;DHT22;9179;50.968;3.134;2023-12-04T01:44:00;4.70;99.90
18105;DHT22;9179;50.968;3.134;2023-12-04T01:46:27;4.70;99.90
18105;DHT22;9179;50.968;3.134;2023-12-04T01:48:55;4.70;99.90
18105;DHT22;9179;50.968;3.134;2023-12-04T01:51:23;4.70;99.90
18105;DHT22;9179;50.968;3.134;2023-12-04T01:53:50;4.70;99.90
18105;DHT22;9179;50.968;3.134;2023-12-04T01:56:17;4.80;99.90
18105;DHT22;9179;50.968;3.134;2023-12-04T01:58:46;4.80;99.90
18105;DHT22;9179;50.968;3.134;2023-12-04T02:01:13;4.80;99.90
18105;DHT22;9179;50.968;3.134;2023-12-04T02:03:41;4.80;99.90
18105;DHT22;9179;50.968;3.134;2023-12-04T02:06:11;4.90;99.90
18105;DHT22;9179;50.968;3.134;2023-12-04T02:08:40;4.90;99.90
18105;DHT22;9179;50.968;3.134;2023-12-04T02:11:07;4.80;99.90
18105;DHT22;9179;50.968;3.134;2023-12-04T02:13:35;4.90;99.90
18105;DHT22;9179;50.968;3.134;2023-12-04T02:16:03;4.90;99.90
18105;DHT22;9179;50.968;3.134;2023-12-04T02:18:33;4.90;99.90
18105;DHT22;9179;50.968;3.134;2023-12-04T02:21:00;4.90;99.90
18105;DHT22;9179;50.968;3.134;2023-12-04T02:23:29;4.90;99.90
18105;DHT22;9179;50.968;3.134;2023-12-04T02:26:01;4.90;99.90
18105;DHT22;9179;50.968;3.134;2023-12-04T02:28:33;4.90;99.90
18105;DHT22;9179;50.968;3.134;2023-12-04T02:31:01;4.90;99.90
18105;DHT22;9179;50.968;3.134;2023-12-04T02:33:30;4.90;99.90
18105;DHT22;9179;50.968;3.134;2023-12-04T02:35:59;4.90;99.90
18105;DHT22;9179;50.968;3.134;2023-12-04T02:38:28;4.90;99.90
18105;DHT22;9179;50.968;3.134;2023-12-04T02:40:57;5.00;99.90
18105;DHT22;9179;50.968;3.134;2023-12-04T02:43:23;5.00;99.90
18105;DHT22;9179;50.968;3.134;2023-12-04T02:45:50;5.00;99.90
18105;DHT22;9179;50.968;3.134;2023-12-04T02:48:17;5.00;99.90
18105;DHT22;9179;50.968;3.134;2023-12-04T02:50:44;5.00;99.90
18105;DHT22;9179;50.968;3.134;2023-12-04T02:53:11;5.00;99.90
18105;DHT22;9179;50.968;3.134;2023-12-04T02:55:38;5.00;99.90
18105;DHT22;9179;50.968;3.134;2023-12-04T02:58:06;5.10;99.90
18105;DHT22;9179;50.968;3.134;2023-12-04T03:00:33;5.10;99.90
18105;DHT22;9179;50.968;3.134;2023-12-04T03:03:00;5.20;99.90
18105;DHT22;9179;50.968;3.134;2023-12-04T03:05:27;5.20;99.90
18105;DHT22;9179;50.968;3.134;2023-12-04T03:07:54;5.20;99.90
18105;DHT22;9179;50.968;3.134;2023-12-04T03:10:21;5.20;99.90
18105;DHT22;9179;50.968;3.134;2023-12-04T03:12:48;5.20;99.90
18105;DHT22;9179;50.968;3.134;2023-12-04T03:15:16;5.30;99.90
18105;DHT22;9179;50.968;3.134;2023-12-04T03:17:43;5.30;99.90
18105;DHT22;9179;50.968;3.134;2023-12-04T03:20:10;5.30;99.90
18105;DHT22;9179;50.968;3.134;2023-12-04T03:22:37;5.30;99.90
18105;DHT22;9179;50.968;3.134;2023-12-04T03:25:05;5.30;99.90
18105;DHT22;9179;50.968;3.134;2023-12-04T03:27:32;5.50;99.90
18105;DHT22;9179;50.968;3.134;2023-12-04T03:29:59;5.50;99.90
18105;DHT22;9179;50.968;3.134;2023-12-04T03:32:27;5.50;99.90
18105;DHT22;9179;50.968;3.134;2023-12-04T03:34:54;5.60;99.90
18105;DHT22;9179;50.968;3.134;2023-12-04T03:37:21;5.50;99.90
18105;DHT22;9179;50.968;3.134;2023-12-04T03:39:48;5.60;99.90
18105;DHT22;9179;50.968;3.134;2023-12-04T03:42:15;5.60;99.90
18105;DHT22;9179;50.968;3.134;2023-12-04T03:44:42;5.60;99.90
18105;DHT22;9179;50.968;3.134;2023-12-04T03:47:09;5.60;99.90
18105;DHT22;9179;50.968;3.134;2023-12-04T03:49:37;5.70;99.90
18105;DHT22;9179;50.968;3.134;2023-12-04T03:52:05;5.70;99.90
18105;DHT22;9179;50.968;3.134;2023-12-04T03:54:32;5.70;99.90
18105;DHT22;9179;50.968;3.134;2023-12-04T03:56:59;5.70;99.90
18105;DHT22;9179;50.968;3.134;2023-12-04T03:59:25;5.70;99.90
18105;DHT22;9179;50.968;3.134;2023-12-04T04:01:52;5.70;99.90
18105;DHT22;9179;50.968;3.134;2023-12-04T04:04:19;5.70;99.90
18105;DHT22;9179;50.968;3.134;2023-12-04T04:06:47;5.70;99.90
18105;DHT22;9179;50.968;3.134;2023-12-04T04:09:14;5.80;99.90
18105;DHT22;9179;50.968;3.134;2023-12-04T04:11:42;5.80;99.90
18105;DHT22;9179;50.968;3.134;2023-12-04T04:14:09;5.80;99.90
18105;DHT22;9179;50.968;3.134;2023-12-04T04:16:36;5.70;99.90
18105;DHT22;9179;50.968;3.134;2023-12-04T04:19:03;5.80;99.90
18105;DHT22;9179;50.968;3.134;2023-12-04T04:21:30;5.80;99.90
18105;DHT22;9179;50.968;3.134;2023-12-04T04:23:58;5.80;99.90
18105;DHT22;9179;50.968;3.134;2023-12-04T04:26:25;5.80;99.90
18105;DHT22;9179;50.968;3.134;2023-12-04T04:28:52;5.90;99.90
18105;DHT22;9179;50.968;3.134;2023-12-04T04:31:19;5.90;99.90
18105;DHT22;9179;50.968;3.134;2023-12-04T04:33:46;5.90;99.90
18105;DHT22;9179;50.968;3.134;2023-12-04T04:36:13;5.90;99.90
18105;DHT22;9179;50.968;3.134;2023-12-04T04:38:40;5.90;99.90
18105;DHT22;9179;50.968;3.134;2023-12-04T04:41:13;5.80;99.90
18105;DHT22;9179;50.968;3.134;2023-12-04T04:43:40;5.80;99.90
18105;DHT22;9179;50.968;3.134;2023-12-04T04:46:07;5.70;99.90
18105;DHT22;9179;50.968;3.134;2023-12-04T04:48:34;5.60;99.90
18105;DHT22;9179;50.968;3.134;2023-12-04T04:51:01;5.50;99.90
18105;DHT22;9179;50.968;3.134;2023-12-04T04:53:27;5.60;99.90
18105;DHT22;9179;50.968;3.134;2023-12-04T04:55:55;5.60;99.90
18105;DHT22;9179;50.968;3.134;2023-12-04T04:58:23;5.60;99.90
18105;DHT22;9179;50.968;3.134;2023-12-04T05:00:50;5.50;99.90
18105;DHT22;9179;50.968;3.134;2023-12-04T05:03:17;5.50;99.90
18105;DHT22;9179;50.968;3.134;2023-12-04T05:05:43;5.50;99.90
18105;DHT22;9179;50.968;3.134;2023-12-04T05:08:10;5.50;99.90
18105;DHT22;9179;50.968;3.134;2023-12-04T05:10:38;5.60;99.90
18105;DHT22;9179;50.968;3.134;2023-12-04T05:13:05;5.60;99.90
18105;DHT22;9179;50.968;3.134;2023-12-04T05:15:33;5.60;99.90
18105;DHT22;9179;50.968;3.134;2023-12-04T05:18:01;5.50;99.90
18105;DHT22;9179;50.968;3.134;2023-12-04T05:20:28;5.60;99.90
18105;DHT22;9179;50.968;3.134;2023-12-04T05:22:56;5.60;99.90
18105;DHT22;9179;50.968;3.134;2023-12-04T05:25:23;5.60;99.90
18105;DHT22;9179;50.968;3.134;2023-12-04T05:27:50;5.70;99.90
18105;DHT22;9179;50.968;3.134;2023-12-04T05:30:17;5.70;99.90
18105;DHT22;9179;50.968;3.134;2023-12-04T05:32:45;5.60;99.90
18105;DHT22;9179;50.968;3.134;2023-12-04T05:35:12;5.60;99.90
18105;DHT22;9179;50.968;3.134;2023-12-04T05:37:39;5.40;99.90
18105;DHT22;9179;50.968;3.134;2023-12-04T05:40:07;5.30;99.90
18105;DHT22;9179;50.968;3.134;2023-12-04T05:42:34;5.10;99.90
18105;DHT22;9179;50.968;3.134;2023-12-04T05:45:02;5.10;99.90
18105;DHT22;9179;50.968;3.134;2023-12-04T05:47:29;5.10;99.90
18105;DHT22;9179;50.968;3.134;2023-12-04T05:49:57;5.10;99.90
18105;DHT22;9179;50.968;3.134;2023-12-04T05:52:24;5.10;99.90
18105;DHT22;9179;50.968;3.134;2023-12-04T05:54:51;5.10;99.90
18105;DHT22;9179;50.968;3.134;2023-12-04T05:57:18;5.10;99.90
18105;DHT22;9179;50.968;3.134;2023-12-04T05:59:45;5.10;99.90
18105;DHT22;9179;50.968;3.134;2023-12-04T06:02:12;5.10;99.90
18105;DHT22;9179;50.968;3.134;2023-12-04T06:04:41;5.10;99.90
18105;DHT22;9179;50.968;3.134;2023-12-04T06:07:09;5.20;99.90
18105;DHT22;9179;50.968;3.134;2023-12-04T06:09:36;5.10;99.90
18105;DHT22;9179;50.968;3.134;2023-12-04T06:12:03;5.20;99.90
18105;DHT22;9179;50.968;3.134;2023-12-04T06:14:33;5.20;99.90
18105;DHT22;9179;50.968;3.134;2023-12-04T06:17:01;5.20;99.90
18105;DHT22;9179;50.968;3.134;2023-12-04T06:19:28;5.10;99.90
18105;DHT22;9179;50.968;3.134;2023-12-04T06:21:55;5.20;99.90
18105;DHT22;9179;50.968;3.134;2023-12-04T06:24:24;5.20;99.90
18105;DHT22;9179;50.968;3.134;2023-12-04T06:26:52;5.20;99.90
18105;DHT22;9179;50.968;3.134;2023-12-04T06:29:19;5.30;99.90
18105;DHT22;9179;50.968;3.134;2023-12-04T06:31:47;5.30;99.90
18105;DHT22;9179;50.968;3.134;2023-12-04T06:34:14;5.20;99.90
18105;DHT22;9179;50.968;3.134;2023-12-04T06:36:41;5.20;99.90
18105;DHT22;9179;50.968;3.134;2023-12-04T06:39:10;5.20;99.90
18105;DHT22;9179;50.968;3.134;2023-12-04T06:41:40;4.90;99.90
18105;DHT22;9179;50.968;3.134;2023-12-04T06:44:08;4.80;99.90
18105;DHT22;9179;50.968;3.134;2023-12-04T06:46:37;4.80;99.90
18105;DHT22;9179;50.968;3.134;2023-12-04T06:49:05;4.60;99.90
18105;DHT22;9179;50.968;3.134;2023-12-04T06:51:32;4.60;99.90
18105;DHT22;9179;50.968;3.134;2023-12-04T06:53:59;4.50;99.90
18105;DHT22;9179;50.968;3.134;2023-12-04T06:56:26;4.50;99.90
18105;DHT22;9179;50.968;3.134;2023-12-04T06:58:55;4.40;99.90
18105;DHT22;9179;50.968;3.134;2023-12-04T07:01:22;4.40;99.90
18105;DHT22;9179;50.968;3.134;2023-12-04T07:03:48;4.40;99.90
18105;DHT22;9179;50.968;3.134;2023-12-04T07:06:15;4.30;99.90
18105;DHT22;9179;50.968;3.134;2023-12-04T07:08:43;4.30;99.90
18105;DHT22;9179;50.968;3.134;2023-12-04T07:11:09;4.30;99.90
18105;DHT22;9179;50.968;3.134;2023-12-04T07:13:40;4.30;99.90
18105;DHT22;9179;50.968;3.134;2023-12-04T07:16:09;4.20;99.90
18105;DHT22;9179;50.968;3.134;2023-12-04T07:18:36;4.30;99.90
18105;DHT22;9179;50.968;3.134;2023-12-04T07:21:04;4.30;99.90
18105;DHT22;9179;50.968;3.134;2023-12-04T07:23:31;4.30;99.90
18105;DHT22;9179;50.968;3.134;2023-12-04T07:25:58;4.40;99.90
18105;DHT22;9179;50.968;3.134;2023-12-04T07:28:24;4.50;99.90
18105;DHT22;9179;50.968;3.134;2023-12-04T07:30:51;4.50;99.90
18105;DHT22;9179;50.968;3.134;2023-12-04T07:33:20;4.50;99.90
18105;DHT22;9179;50.968;3.134;2023-12-04T07:35:47;4.50;99.90
18105;DHT22;9179;50.968;3.134;2023-12-04T07:38:13;4.40;99.90
18105;DHT22;9179;50.968;3.134;2023-12-04T07:40:40;4.40;99.90
18105;DHT22;9179;50.968;3.134;2023-12-04T07:43:07;4.40;99.90
18105;DHT22;9179;50.968;3.134;2023-12-04T07:45:34;4.40;99.90
18105;DHT22;9179;50.968;3.134;2023-12-04T07:48:02;4.40;99.90
18105;DHT22;9179;50.968;3.134;2023-12-04T07:50:31;4.40;99.90
18105;DHT22;9179;50.968;3.134;2023-12-04T07:52:58;4.40;99.90
18105;DHT22;9179;50.968;3.134;2023-12-04T07:55:25;4.50;99.90
18105;DHT22;9179;50.968;3.134;2023-12-04T07:57:52;4.40;99.90
18105;DHT22;9179;50.968;3.134;2023-12-04T08:00:19;4.40;99.90
18105;DHT22;9179;50.968;3.134;2023-12-04T08:02:48;4.40;99.90
18105;DHT22;9179;50.968;3.134;2023-12-04T08:05:15;4.40;99.90
18105;DHT22;9179;50.968;3.134;2023-12-04T08:07:44;4.40;99.90
18105;DHT22;9179;50.968;3.134;2023-12-04T08:10:11;4.40;99.90
18105;DHT22;9179;50.968;3.134;2023-12-04T08:12:38;4.40;99.90
18105;DHT22;9179;50.968;3.134;2023-12-04T08:15:06;4.50;99.90
18105;DHT22;9179;50.968;3.134;2023-12-04T08:17:33;4.50;99.90
18105;DHT22;9179;50.968;3.134;2023-12-04T08:20:00;4.50;99.90
18105;DHT22;9179;50.968;3.134;2023-12-04T08:22:27;4.50;99.90
18105;DHT22;9179;50.968;3.134;2023-12-04T08:24:55;4.50;99.90
18105;DHT22;9179;50.968;3.134;2023-12-04T08:27:23;4.60;99.90
18105;DHT22;9179;50.968;3.134;2023-12-04T08:29:50;4.60;99.90
18105;DHT22;9179;50.968;3.134;2023-12-04T08:32:17;4.70;99.90
18105;DHT22;9179;50.968;3.134;2023-12-04T08:34:45;4.80;99.90
18105;DHT22;9179;50.968;3.134;2023-12-04T08:37:12;4.80;99.90
18105;DHT22;9179;50.968;3.134;2023-12-04T08:39:39;4.80;99.90
18105;DHT22;9179;50.968;3.134;2023-12-04T08:42:07;4.90;99.90
18105;DHT22;9179;50.968;3.134;2023-12-04T08:44:34;4.90;99.90
18105;DHT22;9179;50.968;3.134;2023-12-04T08:47:01;4.90;99.90
18105;DHT22;9179;50.968;3.134;2023-12-04T08:49:28;5.00;99.90
18105;DHT22;9179;50.968;3.134;2023-12-04T08:51:55;5.10;99.90
18105;DHT22;9179;50.968;3.134;2023-12-04T08:54:23;5.10;99.90
18105;DHT22;9179;50.968;3.134;2023-12-04T08:56:50;5.20;99.90
18105;DHT22;9179;50.968;3.134;2023-12-04T08:59:18;5.30;99.90
18105;DHT22;9179;50.968;3.134;2023-12-04T09:01:45;5.30;99.90
18105;DHT22;9179;50.968;3.134;2023-12-04T09:04:12;5.30;99.90
18105;DHT22;9179;50.968;3.134;2023-12-04T09:06:39;5.30;99.90
18105;DHT22;9179;50.968;3.134;2023-12-04T09:09:06;5.40;99.90
18105;DHT22;9179;50.968;3.134;2023-12-04T09:11:33;5.40;99.90
18105;DHT22;9179;50.968;3.134;2023-12-04T09:14:00;5.30;99.90
18105;DHT22;9179;50.968;3.134;2023-12-04T09:16:28;5.50;99.90
18105;DHT22;9179;50.968;3.134;2023-12-04T09:18:55;5.50;99.90
18105;DHT22;9179;50.968;3.134;2023-12-04T09:21:22;5.50;99.90
18105;DHT22;9179;50.968;3.134;2023-12-04T09:23:49;5.50;99.90
18105;DHT22;9179;50.968;3.134;2023-12-04T09:26:16;5.50;99.90
18105;DHT22;9179;50.968;3.134;2023-12-04T09:28:43;5.60;99.90
18105;DHT22;9179;50.968;3.134;2023-12-04T09:31:10;5.60;99.90
18105;DHT22;9179;50.968;3.134;2023-12-04T09:33:38;5.50;99.90
18105;DHT22;9179;50.968;3.134;2023-12-04T09:36:05;5.50;99.90
18105;DHT22;9179;50.968;3.134;2023-12-04T09:38:33;5.50;99.90
18105;DHT22;9179;50.968;3.134;2023-12-04T09:41:02;5.50;99.90
18105;DHT22;9179;50.968;3.134;2023-12-04T09:43:31;5.50;99.90
18105;DHT22;9179;50.968;3.134;2023-12-04T09:45:58;5.50;99.90
18105;DHT22;9179;50.968;3.134;2023-12-04T09:48:27;5.40;99.90
18105;DHT22;9179;50.968;3.134;2023-12-04T09:50:56;5.40;99.90
18105;DHT22;9179;50.968;3.134;2023-12-04T09:53:24;5.40;99.90
18105;DHT22;9179;50.968;3.134;2023-12-04T09:55:53;5.50;99.90
18105;DHT22;9179;50.968;3.134;2023-12-04T09:58:26;5.70;99.90
18105;DHT22;9179;50.968;3.134;2023-12-04T10:00:54;5.70;99.90
18105;DHT22;9179;50.968;3.134;2023-12-04T10:03:21;5.80;99.90
18105;DHT22;9179;50.968;3.134;2023-12-04T10:05:48;5.70;99.90
18105;DHT22;9179;50.968;3.134;2023-12-04T10:08:17;5.80;99.90
18105;DHT22;9179;50.968;3.134;2023-12-04T10:10:44;5.90;99.90
18105;DHT22;9179;50.968;3.134;2023-12-04T10:13:11;5.90;99.90
18105;DHT22;9179;50.968;3.134;2023-12-04T10:15:46;5.90;99.90
18105;DHT22;9179;50.968;3.134;2023-12-04T10:18:24;5.80;99.90
18105;DHT22;9179;50.968;3.134;2023-12-04T10:20:52;5.70;99.90
18105;DHT22;9179;50.968;3.134;2023-12-04T10:23:21;5.70;99.90
18105;DHT22;9179;50.968;3.134;2023-12-04T10:25:49;5.70;99.90
18105;DHT22;9179;50.968;3.134;2023-12-04T10:28:17;5.60;99.90
18105;DHT22;9179;50.968;3.134;2023-12-04T10:30:45;5.70;99.90
18105;DHT22;9179;50.968;3.134;2023-12-04T10:33:12;5.80;99.90
18105;DHT22;9179;50.968;3.134;2023-12-04T10:35:40;5.90;99.90
18105;DHT22;9179;50.968;3.134;2023-12-04T10:38:08;6.00;99.90
18105;DHT22;9179;50.968;3.134;2023-12-04T10:40:37;6.00;99.90
18105;DHT22;9179;50.968;3.134;2023-12-04T10:43:25;6.20;99.90
18105;DHT22;9179;50.968;3.134;2023-12-04T10:45:52;6.30;99.90
18105;DHT22;9179;50.968;3.134;2023-12-04T10:48:20;6.30;99.90
18105;DHT22;9179;50.968;3.134;2023-12-04T10:50:48;6.40;99.90
18105;DHT22;9179;50.968;3.134;2023-12-04T10:53:16;6.40;99.90
18105;DHT22;9179;50.968;3.134;2023-12-04T10:55:45;6.30;99.90
18105;DHT22;9179;50.968;3.134;2023-12-04T10:58:13;6.40;99.90
18105;DHT22;9179;50.968;3.134;2023-12-04T11:00:43;6.30;99.90
18105;DHT22;9179;50.968;3.134;2023-12-04T11:03:14;6.30;99.90
18105;DHT22;9179;50.968;3.134;2023-12-04T11:05:44;6.30;99.90
18105;DHT22;9179;50.968;3.134;2023-12-04T11:08:15;6.20;99.90
18105;DHT22;9179;50.968;3.134;2023-12-04T11:10:48;6.10;99.90
18105;DHT22;9179;50.968;3.134;2023-12-04T11:13:21;6.00;99.90
18105;DHT22;9179;50.968;3.134;2023-12-04T11:15:50;6.10;99.90
18105;DHT22;9179;50.968;3.134;2023-12-04T11:18:22;6.10;99.90
18105;DHT22;9179;50.968;3.134;2023-12-04T11:20:56;6.10;99.90
18105;DHT22;9179;50.968;3.134;2023-12-04T11:23:25;6.10;99.90
18105;DHT22;9179;50.968;3.134;2023-12-04T11:25:54;6.20;99.90
18105;DHT22;9179;50.968;3.134;2023-12-04T11:28:21;6.30;99.90
18105;DHT22;9179;50.968;3.134;2023-12-04T11:30:49;6.40;99.90
18105;DHT22;9179;50.968;3.134;2023-12-04T11:33:18;6.50;99.90
18105;DHT22;9179;50.968;3.134;2023-12-04T11:35:45;6.50;99.90
18105;DHT22;9179;50.968;3.134;2023-12-04T11:38:13;6.50;99.90
18105;DHT22;9179;50.968;3.134;2023-12-04T11:40:41;6.60;99.90
18105;DHT22;9179;50.968;3.134;2023-12-04T11:43:24;6.80;99.90
18105;DHT22;9179;50.968;3.134;2023-12-04T11:45:51;6.90;99.90
18105;DHT22;9179;50.968;3.134;2023-12-04T11:48:22;7.00;99.90
18105;DHT22;9179;50.968;3.134;2023-12-04T11:50:50;7.00;99.90
18105;DHT22;9179;50.968;3.134;2023-12-04T11:53:17;7.00;99.90
18105;DHT22;9179;50.968;3.134;2023-12-04T11:55:46;7.10;99.90
18105;DHT22;9179;50.968;3.134;2023-12-04T11:58:13;7.20;99.90
18105;DHT22;9179;50.968;3.134;2023-12-04T12:00:42;7.20;99.90
18105;DHT22;9179;50.968;3.134;2023-12-04T12:03:09;7.10;99.90
18105;DHT22;9179;50.968;3.134;2023-12-04T12:05:36;7.10;99.90
18105;DHT22;9179;50.968;3.134;2023-12-04T12:08:06;6.90;99.90
18105;DHT22;9179;50.968;3.134;2023-12-04T12:10:33;6.90;99.90
18105;DHT22;9179;50.968;3.134;2023-12-04T12:13:00;6.90;99.90
18105;DHT22;9179;50.968;3.134;2023-12-04T12:15:28;6.90;99.90
18105;DHT22;9179;50.968;3.134;2023-12-04T12:17:56;6.80;99.90
18105;DHT22;9179;50.968;3.134;2023-12-04T12:20:24;6.90;99.90
18105;DHT22;9179;50.968;3.134;2023-12-04T12:22:52;7.00;99.90
18105;DHT22;9179;50.968;3.134;2023-12-04T12:25:19;7.00;99.90
18105;DHT22;9179;50.968;3.134;2023-12-04T12:27:46;7.10;99.90
18105;DHT22;9179;50.968;3.134;2023-12-04T12:30:13;7.30;99.90
18105;DHT22;9179;50.968;3.134;2023-12-04T12:32:40;7.40;99.90
18105;DHT22;9179;50.968;3.134;2023-12-04T12:35:08;7.50;99.90
18105;DHT22;9179;50.968;3.134;2023-12-04T12:37:36;7.60;99.90
18105;DHT22;9179;50.968;3.134;2023-12-04T12:40:05;7.60;99.90
18105;DHT22;9179;50.968;3.134;2023-12-04T12:42:36;7.40;99.90
18105;DHT22;9179;50.968;3.134;2023-12-04T12:45:05;7.40;99.90
18105;DHT22;9179;50.968;3.134;2023-12-04T12:47:32;7.30;99.90
18105;DHT22;9179;50.968;3.134;2023-12-04T12:50:01;7.20;99.90
18105;DHT22;9179;50.968;3.134;2023-12-04T12:52:29;7.10;99.90
18105;DHT22;9179;50.968;3.134;2023-12-04T12:54:56;7.00;99.90
18105;DHT22;9179;50.968;3.134;2023-12-04T12:57:23;7.00;99.90
18105;DHT22;9179;50.968;3.134;2023-12-04T12:59:51;6.90;99.90
18105;DHT22;9179;50.968;3.134;2023-12-04T13:02:20;6.90;99.90
18105;DHT22;9179;50.968;3.134;2023-12-04T13:04:47;6.80;99.90
18105;DHT22;9179;50.968;3.134;2023-12-04T13:07:14;6.80;99.90
18105;DHT22;9179;50.968;3.134;2023-12-04T13:09:42;6.80;99.90
18105;DHT22;9179;50.968;3.134;2023-12-04T13:12:10;6.80;99.90
18105;DHT22;9179;50.968;3.134;2023-12-04T13:14:38;6.90;99.90
18105;DHT22;9179;50.968;3.134;2023-12-04T13:17:05;6.80;99.90
18105;DHT22;9179;50.968;3.134;2023-12-04T13:19:32;6.70;99.90
18105;DHT22;9179;50.968;3.134;2023-12-04T13:22:00;6.80;99.90
18105;DHT22;9179;50.968;3.134;2023-12-04T13:24:29;6.90;99.90
18105;DHT22;9179;50.968;3.134;2023-12-04T13:26:58;6.90;99.90
18105;DHT22;9179;50.968;3.134;2023-12-04T13:29:24;6.90;99.90
18105;DHT22;9179;50.968;3.134;2023-12-04T13:31:51;6.90;99.90
18105;DHT22;9179;50.968;3.134;2023-12-04T13:34:19;6.80;99.90
18105;DHT22;9179;50.968;3.134;2023-12-04T13:36:45;6.70;99.90
18105;DHT22;9179;50.968;3.134;2023-12-04T13:39:12;6.80;99.90
18105;DHT22;9179;50.968;3.134;2023-12-04T13:41:45;6.70;99.90
18105;DHT22;9179;50.968;3.134;2023-12-04T13:44:31;6.70;99.90
18105;DHT22;9179;50.968;3.134;2023-12-04T13:46:59;6.70;99.90
18105;DHT22;9179;50.968;3.134;2023-12-04T13:49:26;6.70;99.90
18105;DHT22;9179;50.968;3.134;2023-12-04T13:51:53;6.60;99.90
18105;DHT22;9179;50.968;3.134;2023-12-04T13:54:20;6.60;99.90
18105;DHT22;9179;50.968;3.134;2023-12-04T13:56:53;6.60;99.90
18105;DHT22;9179;50.968;3.134;2023-12-04T13:59:20;6.60;99.90
18105;DHT22;9179;50.968;3.134;2023-12-04T14:01:49;6.60;99.90
18105;DHT22;9179;50.968;3.134;2023-12-04T14:04:17;6.60;99.90
18105;DHT22;9179;50.968;3.134;2023-12-04T14:06:44;6.60;99.90
18105;DHT22;9179;50.968;3.134;2023-12-04T14:09:11;6.50;99.90
18105;DHT22;9179;50.968;3.134;2023-12-04T14:11:43;6.60;99.90
18105;DHT22;9179;50.968;3.134;2023-12-04T14:14:11;6.50;99.90
18105;DHT22;9179;50.968;3.134;2023-12-04T14:16:39;6.60;99.90
18105;DHT22;9179;50.968;3.134;2023-12-04T14:19:08;6.60;99.90
18105;DHT22;9179;50.968;3.134;2023-12-04T14:21:35;6.70;99.90
18105;DHT22;9179;50.968;3.134;2023-12-04T14:24:02;6.70;99.90
18105;DHT22;9179;50.968;3.134;2023-12-04T14:26:29;6.70;99.90
18105;DHT22;9179;50.968;3.134;2023-12-04T14:28:56;6.70;99.90
18105;DHT22;9179;50.968;3.134;2023-12-04T14:31:27;6.70;99.90
18105;DHT22;9179;50.968;3.134;2023-12-04T14:33:53;6.70;99.90
18105;DHT22;9179;50.968;3.134;2023-12-04T14:36:22;6.70;99.90
18105;DHT22;9179;50.968;3.134;2023-12-04T14:38:49;6.70;99.90
18105;DHT22;9179;50.968;3.134;2023-12-04T14:41:16;6.70;99.90
18105;DHT22;9179;50.968;3.134;2023-12-04T14:43:42;6.80;99.90
18105;DHT22;9179;50.968;3.134;2023-12-04T14:46:09;6.70;99.90
18105;DHT22;9179;50.968;3.134;2023-12-04T14:48:37;6.70;99.90
18105;DHT22;9179;50.968;3.134;2023-12-04T14:51:07;6.60;99.90
18105;DHT22;9179;50.968;3.134;2023-12-04T14:53:37;6.60;99.90
18105;DHT22;9179;50.968;3.134;2023-12-04T14:56:12;6.60;99.90
18105;DHT22;9179;50.968;3.134;2023-12-04T14:58:56;6.50;99.90
18105;DHT22;9179;50.968;3.134;2023-12-04T15:01:40;6.50;99.90
18105;DHT22;9179;50.968;3.134;2023-12-04T15:04:24;6.50;99.90
18105;DHT22;9179;50.968;3.134;2023-12-04T15:07:04;6.40;99.90
18105;DHT22;9179;50.968;3.134;2023-12-04T15:10:07;6.30;99.90
18105;DHT22;9179;50.968;3.134;2023-12-04T15:12:53;6.40;99.90
18105;DHT22;9179;50.968;3.134;2023-12-04T15:15:37;6.30;99.90
18105;DHT22;9179;50.968;3.134;2023-12-04T15:18:27;6.20;99.90
18105;DHT22;9179;50.968;3.134;2023-12-04T15:21:01;6.20;99.90
18105;DHT22;9179;50.968;3.134;2023-12-04T15:23:29;6.30;99.90
18105;DHT22;9179;50.968;3.134;2023-12-04T15:25:56;6.40;99.90
18105;DHT22;9179;50.968;3.134;2023-12-04T15:28:23;6.40;99.90
18105;DHT22;9179;50.968;3.134;2023-12-04T15:30:49;6.40;99.90
18105;DHT22;9179;50.968;3.134;2023-12-04T15:33:16;6.40;99.90
18105;DHT22;9179;50.968;3.134;2023-12-04T15:35:42;6.40;99.90
18105;DHT22;9179;50.968;3.134;2023-12-04T15:38:09;6.40;99.90
18105;DHT22;9179;50.968;3.134;2023-12-04T15:40:35;6.30;99.90
18105;DHT22;9179;50.968;3.134;2023-12-04T15:43:03;6.40;99.90
18105;DHT22;9179;50.968;3.134;2023-12-04T15:45:29;6.40;99.90
18105;DHT22;9179;50.968;3.134;2023-12-04T15:47:56;6.40;99.90
18105;DHT22;9179;50.968;3.134;2023-12-04T15:50:22;6.40;99.90
18105;DHT22;9179;50.968;3.134;2023-12-04T15:52:50;6.40;99.90
18105;DHT22;9179;50.968;3.134;2023-12-04T15:55:16;6.40;99.90
18105;DHT22;9179;50.968;3.134;2023-12-04T15:57:43;6.50;99.90
18105;DHT22;9179;50.968;3.134;2023-12-04T16:00:12;6.50;99.90
18105;DHT22;9179;50.968;3.134;2023-12-04T16:02:39;6.50;99.90
18105;DHT22;9179;50.968;3.134;2023-12-04T16:05:06;6.50;99.90
18105;DHT22;9179;50.968;3.134;2023-12-04T16:07:34;6.50;99.90